»·PEaware :: N721SM KPOC-P20

N721SM :: KPOC-P20

FLIGHT INFORMATION

Flight Status: Arrived
Operator: Privately registered:
United States
More flights under this callsign
Pilot: Arnie G. (43443)
Aircraft: Unknown
(EPIC)
More flights by this aircraft type
Origin: KPOC Brackett
United States
Destination: P20 Avi Suquilla
United States
More flights between these airports :: More routes between these airports
Route: TNP PKE
File this flight plan on PilotEdge
Remarks: Alphabet
Altitude:
(Current/Filed)
15,500ft
Speed:
(Current/Filed)
220kts
Departed: 27-Jul-23 06:42 PM
Arrived: 27-Jul-23 07:23 PM
Distance/Time
Traveled:
174nm/0:41
Distance/Time
To Go:
Arrived

Flight Plot

Page will automatically refresh every two minutes.

Flight plan parsing failed; only flown route is shown


Map Options




Map Legend


Flown Route
Filed Route
Departure Airport
Arrival Airport
Navaid (VOR, NDB)
Fix

Horizontal Profiles

Position Reports

Time Latitude Longitude Heading Altitude Ground
Speed
27-Jul-23 18:28 34.089578 -117.777240 1 1000ft 0kts
27-Jul-23 18:29 34.089578 -117.777240 1 1000ft 0kts
27-Jul-23 18:30 34.089578 -117.777240 1 1000ft 0kts
27-Jul-23 18:31 34.089578 -117.777240 1 1000ft 0kts
27-Jul-23 18:32 34.089578 -117.777240 1 1000ft 0kts
27-Jul-23 18:33 34.089578 -117.777240 1 1000ft 0kts
27-Jul-23 18:34 34.089578 -117.777240 1 1000ft 0kts
27-Jul-23 18:35 34.089578 -117.777240 1 1000ft 0kts
27-Jul-23 18:36 34.089578 -117.777240 1 1000ft 0kts
27-Jul-23 18:37 34.089580 -117.777240 1 1000ft 0kts
27-Jul-23 18:38 34.090469 -117.774660 6 1005ft 0kts
27-Jul-23 18:39 34.090469 -117.774660 6 1005ft 0kts
27-Jul-23 18:40 34.090469 -117.774660 6 1005ft 0kts
27-Jul-23 18:41 34.092623 -117.791634 274 1717ft 133kts
27-Jul-23 18:42 34.089484 -117.837049 174 5316ft 156kts
27-Jul-23 18:43 34.084227 -117.785330 84 9196ft 182kts
27-Jul-23 18:44 34.094415 -117.731427 97 13386ft 161kts
27-Jul-23 18:45 34.093710 -117.670565 90 15497ft 241kts
27-Jul-23 18:46 34.095312 -117.576332 90 15467ft 304kts
27-Jul-23 18:47 34.097016 -117.471739 90 15465ft 317kts
27-Jul-23 18:48 34.098671 -117.364486 90 15467ft 320kts
27-Jul-23 18:49 34.100399 -117.256946 90 15471ft 321kts
27-Jul-23 18:50 34.101643 -117.149095 91 15469ft 322kts
27-Jul-23 18:51 34.102751 -117.040994 90 15470ft 323kts
27-Jul-23 18:52 34.104075 -116.931871 89 15471ft 328kts
27-Jul-23 18:53 34.105658 -116.821087 90 15447ft 332kts
27-Jul-23 18:54 34.106797 -116.709013 90 15394ft 335kts
27-Jul-23 18:55 34.107833 -116.596506 90 15353ft 335kts
27-Jul-23 18:56 34.108769 -116.484125 90 15366ft 335kts
27-Jul-23 18:57 34.109599 -116.371949 90 15385ft 334kts
27-Jul-23 18:58 34.110694 -116.260155 89 15446ft 334kts
27-Jul-23 18:59 34.113702 -116.147966 89 15503ft 334kts
27-Jul-23 19:00 34.116580 -116.035691 90 15508ft 335kts
27-Jul-23 19:01 34.119439 -115.923518 90 15507ft 335kts
27-Jul-23 19:02 34.122209 -115.811042 90 15507ft 335kts
27-Jul-23 19:03 34.124872 -115.698678 90 15507ft 335kts
27-Jul-23 19:04 34.127432 -115.586309 90 15507ft 335kts
27-Jul-23 19:05 34.129890 -115.474117 90 15587ft 333kts
27-Jul-23 19:06 34.132240 -115.361886 90 15553ft 336kts
27-Jul-23 19:07 34.134509 -115.247697 90 14397ft 349kts
27-Jul-23 19:08 34.134597 -115.133210 92 12881ft 331kts
27-Jul-23 19:09 34.132977 -115.024012 92 11448ft 323kts
27-Jul-23 19:10 34.131395 -114.916072 92 10035ft 323kts
27-Jul-23 19:11 34.130027 -114.808311 92 8618ft 315kts
27-Jul-23 19:12 34.129214 -114.708170 92 7296ft 283kts
27-Jul-23 19:13 34.124751 -114.617014 96 6104ft 266kts
27-Jul-23 19:14 34.119178 -114.529273 96 4962ft 255kts
27-Jul-23 19:15 34.114283 -114.449385 95 3912ft 205kts
27-Jul-23 19:16 34.110302 -114.381287 95 3086ft 209kts
27-Jul-23 19:17 34.105962 -114.309657 96 2280ft 216kts
27-Jul-23 19:18 34.116227 -114.245060 24 1840ft 205kts
27-Jul-23 19:19 34.164669 -114.220531 23 1451ft 175kts
27-Jul-23 19:20 34.189080 -114.243993 240 1593ft 97kts
27-Jul-23 19:21 34.166842 -114.257477 203 718ft 88kts
27-Jul-23 19:22 34.150964 -114.267389 296 455ft 10kts
27-Jul-23 19:23 34.153082 -114.271412 310 447ft 0kts

Navigation Log

Ident Type
Flight plan parsing failed, navigation log unavailable